createdAt,value
2022-08-26T00:02:31.943Z,5.80
2022-08-26T00:05:20.620Z,6.27
2022-08-26T00:08:13.021Z,7.00
2022-08-26T00:11:02.054Z,9.93
2022-08-26T00:13:50.639Z,6.10
2022-08-26T00:16:40.932Z,9.13
2022-08-26T00:19:36.061Z,6.73
2022-08-26T00:22:24.656Z,5.83
2022-08-26T00:25:16.067Z,6.33
2022-08-26T00:28:06.301Z,5.40
2022-08-26T00:30:55.984Z,6.63
2022-08-26T00:33:44.649Z,6.03
2022-08-26T00:36:33.177Z,5.67
2022-08-26T00:39:21.949Z,6.13
2022-08-26T00:42:12.058Z,6.03
2022-08-26T00:45:00.615Z,6.27
2022-08-26T00:47:51.201Z,6.47
2022-08-26T00:50:43.292Z,6.30
2022-08-26T00:53:34.446Z,11.40
2022-08-26T00:56:25.385Z,6.00
2022-08-26T00:59:17.184Z,6.30
2022-08-26T01:02:06.349Z,6.20
2022-08-26T01:04:58.068Z,6.33
2022-08-26T01:07:46.789Z,6.33
2022-08-26T01:10:35.398Z,6.93
2022-08-26T01:13:24.340Z,7.77
2022-08-26T01:16:16.850Z,9.47
2022-08-26T01:19:12.729Z,7.30
2022-08-26T01:22:03.904Z,7.00
2022-08-26T01:24:53.934Z,6.60
2022-08-26T01:27:43.354Z,7.17
2022-08-26T01:30:35.141Z,7.30
2022-08-26T01:33:26.535Z,6.80
2022-08-26T01:36:15.676Z,6.20
2022-08-26T01:39:05.834Z,7.10
2022-08-26T01:41:58.576Z,7.43
2022-08-26T01:44:54.077Z,6.50
2022-08-26T01:47:43.266Z,7.07
2022-08-26T01:50:34.149Z,7.30
2022-08-26T01:53:23.232Z,7.00
2022-08-26T01:56:13.005Z,7.37
2022-08-26T01:59:05.052Z,6.70
2022-08-26T02:01:54.444Z,9.33
2022-08-26T02:04:48.605Z,7.03
2022-08-26T02:07:39.724Z,6.67
2022-08-26T02:10:28.224Z,6.63
2022-08-26T02:13:16.801Z,7.50
2022-08-26T02:16:08.407Z,7.47
2022-08-26T02:18:58.568Z,6.37
2022-08-26T02:21:51.226Z,7.57
2022-08-26T02:24:49.386Z,6.80
2022-08-26T02:27:38.206Z,6.90
2022-08-26T02:30:28.789Z,6.90
2022-08-26T02:33:18.639Z,7.90
2022-08-26T02:36:08.042Z,8.70
2022-08-26T02:38:56.700Z,7.80
2022-08-26T02:41:46.866Z,7.80
2022-08-26T02:44:36.776Z,7.23
2022-08-26T02:47:25.487Z,7.40
2022-08-26T02:50:19.334Z,7.23
2022-08-26T02:53:08.284Z,7.60
2022-08-26T02:55:56.953Z,7.23
2022-08-26T02:58:48.664Z,10.33
2022-08-26T03:01:37.449Z,8.03
2022-08-26T03:04:26.123Z,7.30
2022-08-26T03:07:16.174Z,7.23
2022-08-26T03:10:08.718Z,6.70
2022-08-26T03:12:58.080Z,7.00
2022-08-26T03:15:47.641Z,7.10
2022-08-26T03:18:36.561Z,7.10
2022-08-26T03:21:25.083Z,7.33
2022-08-26T03:24:15.488Z,7.40
2022-08-26T03:27:05.973Z,8.47
2022-08-26T03:30:13.237Z,7.53
2022-08-26T03:33:03.555Z,7.90
2022-08-26T03:35:53.093Z,7.80
2022-08-26T03:38:41.666Z,8.63
2022-08-26T03:41:34.913Z,7.87
2022-08-26T03:44:23.408Z,7.53
2022-08-26T03:47:12.007Z,8.20
2022-08-26T03:50:00.869Z,8.43
2022-08-26T03:52:49.875Z,8.73
2022-08-26T03:55:38.723Z,8.43
2022-08-26T03:58:29.260Z,7.97
2022-08-26T04:01:17.828Z,7.33
2022-08-26T04:04:07.753Z,10.93
2022-08-26T04:06:58.439Z,8.40
2022-08-26T04:09:47.457Z,8.33
2022-08-26T04:12:37.221Z,8.20
2022-08-26T04:15:27.909Z,8.47
2022-08-26T04:18:16.809Z,8.67
2022-08-26T04:21:07.780Z,7.90
2022-08-26T04:23:58.340Z,7.13
2022-08-26T04:26:46.966Z,8.70
2022-08-26T04:29:35.508Z,8.70
2022-08-26T04:32:25.499Z,8.03
2022-08-26T04:35:14.012Z,8.90
2022-08-26T04:38:03.263Z,8.97
2022-08-26T04:40:54.354Z,9.10
2022-08-26T04:43:42.903Z,8.80
2022-08-26T04:46:31.456Z,8.03
2022-08-26T04:49:21.671Z,8.87
2022-08-26T04:52:10.261Z,8.20
2022-08-26T04:54:59.029Z,8.57
2022-08-26T04:57:47.886Z,9.10
2022-08-26T05:00:36.463Z,8.73
2022-08-26T05:03:27.345Z,9.70
2022-08-26T05:06:20.626Z,9.40
2022-08-26T05:09:10.777Z,8.67
2022-08-26T05:11:59.311Z,8.97
2022-08-26T05:14:47.828Z,8.40
2022-08-26T05:17:36.428Z,8.27
2022-08-26T05:20:26.211Z,8.63
2022-08-26T05:23:17.166Z,8.70
2022-08-26T05:26:09.687Z,8.83
2022-08-26T05:28:58.781Z,9.70
2022-08-26T05:31:47.355Z,10.27
2022-08-26T05:34:37.468Z,9.40
2022-08-26T05:37:26.867Z,12.17
2022-08-26T05:40:16.808Z,9.20
2022-08-26T05:43:10.448Z,8.80
2022-08-26T05:46:06.944Z,9.80
2022-08-26T05:48:55.844Z,9.10
2022-08-26T05:51:46.372Z,9.53
2022-08-26T05:54:36.397Z,9.40
2022-08-26T05:57:29.098Z,10.23
2022-08-26T06:00:18.211Z,9.43
2022-08-26T06:03:08.339Z,11.50
2022-08-26T06:05:56.931Z,9.63
2022-08-26T06:08:47.547Z,9.63
2022-08-26T06:11:36.148Z,9.10
2022-08-26T06:14:26.889Z,10.43
2022-08-26T06:17:15.454Z,9.10
2022-08-26T06:20:04.817Z,9.30
2022-08-26T06:23:11.339Z,9.23
2022-08-26T06:26:00.342Z,9.30
2022-08-26T06:28:48.852Z,8.90
2022-08-26T06:31:40.082Z,8.07
2022-08-26T06:34:30.372Z,9.37
2022-08-26T06:37:19.459Z,11.43
2022-08-26T06:40:11.434Z,9.50
2022-08-26T06:43:00.513Z,8.93
2022-08-26T06:45:49.288Z,8.00
2022-08-26T06:48:40.155Z,8.67
2022-08-26T06:51:30.963Z,7.93
2022-08-26T06:54:22.875Z,7.90
2022-08-26T06:57:11.774Z,8.23
2022-08-26T07:00:00.243Z,7.30
2022-08-26T07:02:49.144Z,8.93
2022-08-26T07:05:39.124Z,7.80
2022-08-26T07:08:27.707Z,7.27
2022-08-26T07:11:16.390Z,7.20
2022-08-26T07:14:06.046Z,6.33
2022-08-26T07:16:54.774Z,8.20
2022-08-26T07:19:44.341Z,6.67
2022-08-26T07:22:34.453Z,5.97
2022-08-26T07:25:23.057Z,6.53
2022-08-26T07:28:12.041Z,7.60
2022-08-26T07:31:05.261Z,6.27
2022-08-26T07:33:58.391Z,6.90
2022-08-26T07:36:46.988Z,6.30
2022-08-26T07:39:40.405Z,7.00
2022-08-26T07:42:29.089Z,7.83
2022-08-26T07:45:18.196Z,7.20
2022-08-26T07:48:07.497Z,7.17
2022-08-26T07:50:56.092Z,6.73
2022-08-26T07:53:44.804Z,7.80
2022-08-26T07:56:38.064Z,6.53
2022-08-26T07:59:28.319Z,7.17
2022-08-26T08:02:19.211Z,7.37
2022-08-26T08:05:08.433Z,14.20
2022-08-26T08:08:26.306Z,6.40
2022-08-26T08:11:05.918Z,7.80
2022-08-26T08:13:56.830Z,7.53
2022-08-26T08:16:46.871Z,5.97
2022-08-26T08:19:39.045Z,7.00
2022-08-26T08:22:27.881Z,8.27
2022-08-26T08:25:16.658Z,5.60
2022-08-26T08:28:05.428Z,6.07
2022-08-26T08:30:55.989Z,6.17
2022-08-26T08:33:44.504Z,7.00
2022-08-26T08:36:35.838Z,7.87
2022-08-26T08:39:24.976Z,6.53
2022-08-26T08:42:31.775Z,5.87
2022-08-26T08:45:23.842Z,6.70
2022-08-26T08:48:17.270Z,6.40
2022-08-26T08:51:13.380Z,8.80
2022-08-26T08:54:03.258Z,7.10
2022-08-26T08:56:54.742Z,6.10
2022-08-26T08:59:53.193Z,6.47
2022-08-26T09:02:48.663Z,6.93
2022-08-26T09:05:48.575Z,8.23
2022-08-26T09:08:37.494Z,8.90
2022-08-26T09:11:26.038Z,7.10
2022-08-26T09:14:14.608Z,8.03
2022-08-26T09:17:08.893Z,7.00
2022-08-26T09:20:07.112Z,6.63
2022-08-26T09:22:57.725Z,7.80
2022-08-26T09:25:48.587Z,8.50
2022-08-26T09:28:37.203Z,9.13
2022-08-26T09:31:27.682Z,9.50
2022-08-26T09:34:19.161Z,9.80
2022-08-26T09:37:08.801Z,13.57
2022-08-26T09:40:13.789Z,14.53
2022-08-26T09:43:11.958Z,7.33
2022-08-26T09:46:13.589Z,7.20
2022-08-26T09:49:24.390Z,6.10
2022-08-26T09:52:23.435Z,7.20
2022-08-26T09:55:17.092Z,6.20
2022-08-26T09:58:08.763Z,8.03
2022-08-26T10:01:01.398Z,6.87
2022-08-26T10:03:50.641Z,6.20
2022-08-26T10:06:42.387Z,6.43
2022-08-26T10:09:35.373Z,6.83
2022-08-26T10:12:25.449Z,6.57
2022-08-26T10:15:15.819Z,7.77
2022-08-26T10:18:09.490Z,7.80
2022-08-26T10:21:03.959Z,11.97
2022-08-26T10:23:54.604Z,7.83
2022-08-26T10:26:57.927Z,6.27
2022-08-26T10:29:49.900Z,6.90
2022-08-26T10:32:46.012Z,12.23
2022-08-26T10:35:36.692Z,6.80
2022-08-26T10:38:29.444Z,5.90
2022-08-26T10:41:21.941Z,6.63
2022-08-26T10:44:13.043Z,6.50
2022-08-26T10:47:10.318Z,6.57
2022-08-26T10:50:03.346Z,6.47
2022-08-26T10:53:00.145Z,6.37
2022-08-26T10:55:55.057Z,7.13
2022-08-26T10:58:53.995Z,6.10
2022-08-26T11:01:50.838Z,6.60
2022-08-26T11:04:48.317Z,7.73
2022-08-26T11:07:40.382Z,7.20
2022-08-26T11:11:04.141Z,7.03
2022-08-26T11:14:01.098Z,6.30
2022-08-26T11:16:51.889Z,6.57
2022-08-26T11:20:13.609Z,9.10
2022-08-26T11:23:36.193Z,5.47
2022-08-26T11:26:56.182Z,6.03
2022-08-26T11:30:01.988Z,4.93
2022-08-26T11:32:52.980Z,5.87
2022-08-26T11:35:50.891Z,7.00
2022-08-26T11:38:43.241Z,6.20
2022-08-26T11:41:32.448Z,6.40
2022-08-26T11:44:23.027Z,6.43
2022-08-26T11:47:14.728Z,8.93
2022-08-26T11:50:13.418Z,7.80
2022-08-26T11:53:06.257Z,6.87
2022-08-26T11:55:56.460Z,7.00
2022-08-26T11:58:46.624Z,7.60
2022-08-26T12:01:36.832Z,7.27
2022-08-26T12:04:29.177Z,7.20
2022-08-26T12:07:23.858Z,6.20
2022-08-26T12:10:29.516Z,5.70
2022-08-26T12:13:23.231Z,6.03
2022-08-26T12:16:13.571Z,6.20
2022-08-26T12:19:02.418Z,5.67
2022-08-26T12:21:51.020Z,8.67
2022-08-26T12:24:44.595Z,9.00
2022-08-26T12:27:39.758Z,6.10
2022-08-26T12:30:30.019Z,6.67
2022-08-26T12:33:22.713Z,5.43
2022-08-26T12:36:12.348Z,5.97
2022-08-26T12:39:09.339Z,5.10
2022-08-26T12:41:59.368Z,8.10
2022-08-26T12:44:53.805Z,5.73
2022-08-26T12:47:44.471Z,5.67
2022-08-26T12:50:35.192Z,5.50
2022-08-26T12:53:25.147Z,5.60
2022-08-26T12:56:23.252Z,7.63
2022-08-26T12:59:23.743Z,8.57
2022-08-26T13:02:36.571Z,6.43
2022-08-26T13:05:27.593Z,5.30
2022-08-26T13:08:17.986Z,5.20
2022-08-26T13:11:13.546Z,5.43
2022-08-26T13:14:06.904Z,6.83
2022-08-26T13:16:55.926Z,4.80
2022-08-26T13:19:45.860Z,5.63
2022-08-26T13:22:34.736Z,5.50
2022-08-26T13:25:23.458Z,5.17
2022-08-26T13:28:12.039Z,5.13
2022-08-26T13:31:00.656Z,4.53
2022-08-26T13:33:49.672Z,6.07
2022-08-26T13:36:39.925Z,5.50
2022-08-26T13:39:28.502Z,5.57
2022-08-26T13:42:17.051Z,4.83
2022-08-26T13:45:06.430Z,5.10
2022-08-26T13:47:55.012Z,5.27
2022-08-26T13:50:43.528Z,5.80
2022-08-26T13:53:33.505Z,4.70
2022-08-26T13:56:22.889Z,5.33
2022-08-26T13:59:11.487Z,4.93
2022-08-26T14:02:01.750Z,5.50
2022-08-26T14:04:50.313Z,7.40
2022-08-26T14:07:38.843Z,5.47
2022-08-26T14:10:29.130Z,5.53
2022-08-26T14:13:18.344Z,8.73
2022-08-26T14:16:10.209Z,6.80
2022-08-26T14:19:01.188Z,8.37
2022-08-26T14:21:50.899Z,8.30
2022-08-26T14:24:39.491Z,6.53
2022-08-26T14:27:29.415Z,6.20
2022-08-26T14:30:18.618Z,7.87
2022-08-26T14:33:07.183Z,7.50
2022-08-26T14:36:16.480Z,6.17
2022-08-26T14:39:07.564Z,6.20
2022-08-26T14:41:56.970Z,7.33
2022-08-26T14:44:49.586Z,6.40
2022-08-26T14:47:38.092Z,5.80
2022-08-26T14:50:30.693Z,6.80
2022-08-26T14:53:36.733Z,8.47
2022-08-26T14:56:25.657Z,7.73
2022-08-26T14:59:15.232Z,7.03
2022-08-26T15:02:05.517Z,7.20
2022-08-26T15:04:54.204Z,7.80
2022-08-26T15:07:42.951Z,6.20
2022-08-26T15:10:31.563Z,7.30
2022-08-26T15:13:20.170Z,7.10
2022-08-26T15:16:08.868Z,8.20
2022-08-26T15:18:59.245Z,7.80
2022-08-26T15:21:48.312Z,7.43
2022-08-26T15:24:36.972Z,7.40
2022-08-26T15:27:25.580Z,7.20
2022-08-26T15:30:16.501Z,7.57
2022-08-26T15:33:05.176Z,8.20
2022-08-26T15:35:55.744Z,9.30
2022-08-26T15:38:44.476Z,8.37
2022-08-26T15:41:34.880Z,9.60
2022-08-26T15:44:23.756Z,10.20
2022-08-26T15:47:12.588Z,9.60
2022-08-26T15:50:01.218Z,10.40
2022-08-26T15:52:51.134Z,11.70
2022-08-26T15:55:39.674Z,10.00
2022-08-26T15:58:29.702Z,10.03
2022-08-26T16:01:24.384Z,9.77
2022-08-26T16:04:17.535Z,10.37
2022-08-26T16:07:06.142Z,9.07
2022-08-26T16:09:56.730Z,8.33
2022-08-26T16:12:45.334Z,9.50
2022-08-26T16:15:34.383Z,15.77
2022-08-26T16:18:23.601Z,8.80
2022-08-26T16:21:16.853Z,7.97
2022-08-26T16:24:05.910Z,7.70
2022-08-26T16:26:55.860Z,7.57
2022-08-26T16:29:44.459Z,7.67
2022-08-26T16:32:33.062Z,6.90
2022-08-26T16:35:21.616Z,6.43
2022-08-26T16:38:10.977Z,6.03
2022-08-26T16:41:01.043Z,6.60
2022-08-26T16:43:51.480Z,7.77
2022-08-26T16:46:41.121Z,5.80
2022-08-26T16:49:29.786Z,5.90
2022-08-26T16:52:18.525Z,5.40
2022-08-26T16:55:09.016Z,5.63
2022-08-26T16:57:57.579Z,8.53
2022-08-26T17:00:47.573Z,6.37
2022-08-26T17:03:36.421Z,7.83
2022-08-26T17:06:25.041Z,11.40
2022-08-26T17:09:16.733Z,8.97
2022-08-26T17:12:05.986Z,9.77
2022-08-26T17:14:54.575Z,9.33
2022-08-26T17:17:44.593Z,7.43
2022-08-26T17:20:33.580Z,13.00
2022-08-26T17:23:23.104Z,7.37
2022-08-26T17:26:12.812Z,11.67
2022-08-26T17:29:01.685Z,7.93
2022-08-26T17:31:50.175Z,8.73
2022-08-26T17:34:40.103Z,12.40
2022-08-26T17:37:28.697Z,15.63
2022-08-26T17:40:19.552Z,13.90
2022-08-26T17:43:12.201Z,14.17
2022-08-26T17:46:06.707Z,14.90
2022-08-26T17:48:56.295Z,14.20
2022-08-26T17:51:46.392Z,10.90
2022-08-26T17:54:34.901Z,11.80
2022-08-26T17:57:23.448Z,9.73
2022-08-26T18:00:15.461Z,9.77
2022-08-26T18:03:04.170Z,10.47
2022-08-26T18:05:53.443Z,10.60
2022-08-26T18:08:43.982Z,11.43
2022-08-26T18:11:34.283Z,14.33
2022-08-26T18:14:22.878Z,16.53
2022-08-26T18:17:11.464Z,14.50
2022-08-26T18:20:04.030Z,16.10
2022-08-26T18:22:52.635Z,14.03
2022-08-26T18:25:43.503Z,10.90
2022-08-26T18:28:32.221Z,12.37
2022-08-26T18:31:21.096Z,11.40
2022-08-26T18:34:12.765Z,9.63
2022-08-26T18:37:01.401Z,12.70
2022-08-26T18:39:50.036Z,10.10
2022-08-26T18:42:41.256Z,9.73
2022-08-26T18:45:29.833Z,11.87
2022-08-26T18:48:18.362Z,11.77
2022-08-26T18:51:07.245Z,10.10
2022-08-26T18:54:03.018Z,11.00
2022-08-26T18:56:51.735Z,12.63
2022-08-26T18:59:41.912Z,12.20
2022-08-26T19:02:30.712Z,11.60
2022-08-26T19:05:19.735Z,14.47
2022-08-26T19:08:08.765Z,11.90
2022-08-26T19:10:57.416Z,12.10
2022-08-26T19:13:46.404Z,11.83
2022-08-26T19:16:39.121Z,11.03
2022-08-26T19:19:27.719Z,10.73
2022-08-26T19:22:16.363Z,13.10
2022-08-26T19:25:05.402Z,14.10
2022-08-26T19:27:53.959Z,14.10
2022-08-26T19:30:44.230Z,13.30
2022-08-26T19:33:34.238Z,14.50
2022-08-26T19:36:24.737Z,14.40
2022-08-26T19:39:13.348Z,14.93
2022-08-26T19:42:01.923Z,13.43
2022-08-26T19:45:24.924Z,12.53
2022-08-26T19:48:14.194Z,14.40
2022-08-26T19:51:04.322Z,14.77
2022-08-26T19:53:54.255Z,13.20
2022-08-26T19:56:45.864Z,14.00
2022-08-26T19:59:37.322Z,13.70
2022-08-26T20:02:25.942Z,12.90
2022-08-26T20:05:16.122Z,12.37
2022-08-26T20:08:06.090Z,14.00
2022-08-26T20:10:55.184Z,16.63
2022-08-26T20:13:44.943Z,14.40
2022-08-26T20:16:33.796Z,14.27
2022-08-26T20:19:40.022Z,14.40
2022-08-26T20:22:28.857Z,12.83
2022-08-26T20:25:19.087Z,16.13
2022-08-26T20:28:07.651Z,19.43
2022-08-26T20:30:56.233Z,18.47
2022-08-26T20:33:46.326Z,20.23
2022-08-26T20:36:35.316Z,20.27
2022-08-26T20:39:23.906Z,18.87
2022-08-26T20:42:20.116Z,20.07
2022-08-26T20:45:11.913Z,26.07
2022-08-26T20:48:00.657Z,21.47
2022-08-26T20:50:49.222Z,23.80
2022-08-26T20:53:37.752Z,29.77
2022-08-26T20:56:26.670Z,31.13
2022-08-26T20:59:17.023Z,30.40
2022-08-26T21:02:05.559Z,32.40
2022-08-26T21:04:54.416Z,28.33
2022-08-26T21:07:43.016Z,27.47
2022-08-26T21:10:32.030Z,29.90
2022-08-26T21:13:21.411Z,31.00
2022-08-26T21:16:11.909Z,30.80
2022-08-26T21:19:00.711Z,30.20
2022-08-26T21:21:49.692Z,25.80
2022-08-26T21:24:38.282Z,29.93
2022-08-26T21:27:26.899Z,29.60
2022-08-26T21:30:17.121Z,31.27
2022-08-26T21:33:07.485Z,28.70
2022-08-26T21:35:56.959Z,27.27
2022-08-26T21:38:45.723Z,25.50
2022-08-26T21:41:34.381Z,25.37
2022-08-26T21:44:22.952Z,28.00
2022-08-26T21:47:11.446Z,27.27
2022-08-26T21:50:03.590Z,28.20
2022-08-26T21:52:52.140Z,25.17
2022-08-26T21:55:42.204Z,25.43
2022-08-26T21:58:30.791Z,24.60
2022-08-26T22:01:21.708Z,24.10
2022-08-26T22:04:11.086Z,24.57
2022-08-26T22:07:00.999Z,24.90
2022-08-26T22:09:49.735Z,27.77
2022-08-26T22:12:38.669Z,28.40
2022-08-26T22:15:27.844Z,23.57
2022-08-26T22:18:17.454Z,23.73
2022-08-26T22:21:09.174Z,25.57
2022-08-26T22:23:59.698Z,25.40
2022-08-26T22:26:48.954Z,27.23
2022-08-26T22:29:37.856Z,27.77
2022-08-26T22:32:26.451Z,25.47
2022-08-26T22:35:29.337Z,26.07
2022-08-26T22:38:18.571Z,27.83
2022-08-26T22:41:09.752Z,27.83
2022-08-26T22:43:58.410Z,26.47
2022-08-26T22:46:47.751Z,27.20
2022-08-26T22:49:36.367Z,23.63
2022-08-26T22:52:24.869Z,23.73
2022-08-26T22:55:13.380Z,22.70
2022-08-26T22:58:03.486Z,18.60
2022-08-26T23:00:52.420Z,22.40
2022-08-26T23:03:44.381Z,16.57
2022-08-26T23:06:33.059Z,16.77
2022-08-26T23:09:21.763Z,16.07
2022-08-26T23:12:10.351Z,19.10
2022-08-26T23:15:00.306Z,22.30
2022-08-26T23:17:55.895Z,19.17
2022-08-26T23:20:47.659Z,22.47
2022-08-26T23:23:36.315Z,24.50
2022-08-26T23:26:24.859Z,23.93
2022-08-26T23:29:15.525Z,27.10
2022-08-26T23:32:05.805Z,30.60
2022-08-26T23:34:58.630Z,26.03
2022-08-26T23:37:48.529Z,30.37
2022-08-26T23:40:41.555Z,30.77
2022-08-26T23:43:31.119Z,29.17
2022-08-26T23:46:21.637Z,32.90
2022-08-26T23:49:15.809Z,30.43
2022-08-26T23:52:24.168Z,30.87
2022-08-26T23:55:15.291Z,34.60
2022-08-26T23:58:05.081Z,35.37
